Terminal Aerodrome Forecast
Issued by NWS

Current Version | Previous Version | Text Only | Print | Product List | Glossary On
Versions: 1 2 3 4 5 6 7 8 9 10 11 12 13 14 15 16 17 18 19
000 FTUS41 KBOX 230820 AAA TAFACK TAF AMD KACK 230820Z 2308/2406 VRB03KT 1SM BR OVC003 FM231000 25007KT 2SM -RA BR OVC004 FM231100 25007KT 2SM BR OVC005 FM231700 26009KT 3SM BR BKN008 FM232000 25008KT 3SM BR BKN015 FM240100 26007KT 5SM BR BKN025 FM240400 33009KT P6SM BKN035=

USA.gov is the U.S. government's official web portal to all federal, state and local government web resources and services.